sensor_id;sensor_type;location;lat;lon;timestamp;pressure;altitude;pressure_sealevel;temperature;humidity
64644;BME280;51056;50.330;7.914;2023-04-23T00:02:15;99886.97;;;13.37;92.94
64644;BME280;51056;50.330;7.914;2023-04-23T00:05:18;99888.84;;;13.35;92.97
64644;BME280;51056;50.330;7.914;2023-04-23T00:08:22;99891.34;;;13.37;92.98
64644;BME280;51056;50.330;7.914;2023-04-23T00:11:26;99890.97;;;13.30;93.39
64644;BME280;51056;50.330;7.914;2023-04-23T00:14:29;99889.09;;;13.19;93.78
64644;BME280;51056;50.330;7.914;2023-04-23T00:17:32;99896.63;;;13.24;93.54
64644;BME280;51056;50.330;7.914;2023-04-23T00:20:35;99890.53;;;13.23;93.51
64644;BME280;51056;50.330;7.914;2023-04-23T00:23:38;99892.47;;;13.21;93.79
64644;BME280;51056;50.330;7.914;2023-04-23T00:26:42;99896.97;;;13.19;93.91
64644;BME280;51056;50.330;7.914;2023-04-23T00:29:45;99905.69;;;13.20;93.92
64644;BME280;51056;50.330;7.914;2023-04-23T00:32:48;99895.69;;;13.01;93.49
64644;BME280;51056;50.330;7.914;2023-04-23T00:35:51;99892.22;;;13.00;93.91
64644;BME280;51056;50.330;7.914;2023-04-23T00:38:55;99897.47;;;13.00;93.27
64644;BME280;51056;50.330;7.914;2023-04-23T00:41:58;99900.72;;;13.04;93.00
64644;BME280;51056;50.330;7.914;2023-04-23T00:45:04;99898.66;;;12.96;92.01
64644;BME280;51056;50.330;7.914;2023-04-23T00:48:08;99897.44;;;12.89;91.75
64644;BME280;51056;50.330;7.914;2023-04-23T00:51:11;99894.69;;;12.91;92.21
64644;BME280;51056;50.330;7.914;2023-04-23T00:54:14;99889.88;;;12.85;91.90
64644;BME280;51056;50.330;7.914;2023-04-23T00:57:17;99890.91;;;12.82;91.77
64644;BME280;51056;50.330;7.914;2023-04-23T01:00:20;99896.38;;;12.79;91.69
64644;BME280;51056;50.330;7.914;2023-04-23T01:03:25;99893.50;;;12.71;91.75
64644;BME280;51056;50.330;7.914;2023-04-23T01:06:28;99897.50;;;12.64;92.47
64644;BME280;51056;50.330;7.914;2023-04-23T01:09:33;99899.25;;;12.63;93.28
64644;BME280;51056;50.330;7.914;2023-04-23T01:12:36;99899.41;;;12.49;94.26
64644;BME280;51056;50.330;7.914;2023-04-23T01:15:39;99897.75;;;12.48;93.68
64644;BME280;51056;50.330;7.914;2023-04-23T01:18:42;99896.44;;;12.53;93.76
64644;BME280;51056;50.330;7.914;2023-04-23T01:21:46;99900.78;;;12.42;94.02
64644;BME280;51056;50.330;7.914;2023-04-23T01:24:51;99911.50;;;12.39;94.37
64644;BME280;51056;50.330;7.914;2023-04-23T01:27:55;99896.59;;;12.26;94.62
64644;BME280;51056;50.330;7.914;2023-04-23T01:30:58;99903.50;;;12.40;94.59
64644;BME280;51056;50.330;7.914;2023-04-23T01:34:02;99903.41;;;12.42;94.08
64644;BME280;51056;50.330;7.914;2023-04-23T01:37:06;99903.00;;;12.48;93.49
64644;BME280;51056;50.330;7.914;2023-04-23T01:40:09;99907.81;;;12.54;93.29
64644;BME280;51056;50.330;7.914;2023-04-23T01:43:13;99916.59;;;12.53;92.66
64644;BME280;51056;50.330;7.914;2023-04-23T01:46:16;99908.03;;;12.51;92.89
64644;BME280;51056;50.330;7.914;2023-04-23T01:49:20;99920.38;;;12.49;92.95
64644;BME280;51056;50.330;7.914;2023-04-23T01:52:23;99915.34;;;12.46;92.97
64644;BME280;51056;50.330;7.914;2023-04-23T01:55:26;99918.94;;;12.45;93.13
64644;BME280;51056;50.330;7.914;2023-04-23T01:58:31;99920.81;;;12.43;93.03
64644;BME280;51056;50.330;7.914;2023-04-23T02:01:41;99924.59;;;12.26;94.15
64644;BME280;51056;50.330;7.914;2023-04-23T02:04:44;99928.69;;;12.17;95.24
64644;BME280;51056;50.330;7.914;2023-04-23T02:07:50;99927.03;;;12.29;94.68
64644;BME280;51056;50.330;7.914;2023-04-23T02:10:53;99919.16;;;12.29;94.11
64644;BME280;51056;50.330;7.914;2023-04-23T02:13:56;99902.34;;;12.31;93.87
64644;BME280;51056;50.330;7.914;2023-04-23T02:16:59;99908.47;;;12.32;93.88
64644;BME280;51056;50.330;7.914;2023-04-23T02:20:02;99914.31;;;12.36;93.89
64644;BME280;51056;50.330;7.914;2023-04-23T02:23:06;99908.66;;;12.29;93.79
64644;BME280;51056;50.330;7.914;2023-04-23T02:26:09;99908.66;;;12.29;94.16
64644;BME280;51056;50.330;7.914;2023-04-23T02:29:12;99907.38;;;12.34;93.89
64644;BME280;51056;50.330;7.914;2023-04-23T02:32:15;99910.13;;;12.33;93.10
64644;BME280;51056;50.330;7.914;2023-04-23T02:35:18;99916.41;;;12.30;93.41
64644;BME280;51056;50.330;7.914;2023-04-23T02:38:21;99914.97;;;12.26;93.86
64644;BME280;51056;50.330;7.914;2023-04-23T02:41:25;99920.41;;;12.23;94.65
64644;BME280;51056;50.330;7.914;2023-04-23T02:44:28;99920.72;;;12.19;94.83
64644;BME280;51056;50.330;7.914;2023-04-23T02:47:31;99927.31;;;12.24;94.66
64644;BME280;51056;50.330;7.914;2023-04-23T02:50:34;99925.66;;;12.23;94.34
64644;BME280;51056;50.330;7.914;2023-04-23T02:53:37;99917.56;;;12.26;94.31
64644;BME280;51056;50.330;7.914;2023-04-23T02:56:40;99926.59;;;12.22;94.37
64644;BME280;51056;50.330;7.914;2023-04-23T02:59:43;99927.31;;;12.12;94.48
64644;BME280;51056;50.330;7.914;2023-04-23T03:02:46;99928.81;;;12.03;95.44
64644;BME280;51056;50.330;7.914;2023-04-23T03:05:49;99925.22;;;12.04;95.88
64644;BME280;51056;50.330;7.914;2023-04-23T03:08:53;99927.31;;;11.99;96.09
64644;BME280;51056;50.330;7.914;2023-04-23T03:11:56;99925.13;;;12.05;95.68
64644;BME280;51056;50.330;7.914;2023-04-23T03:14:59;99918.75;;;12.09;95.06
64644;BME280;51056;50.330;7.914;2023-04-23T03:18:05;99922.00;;;12.13;94.79
64644;BME280;51056;50.330;7.914;2023-04-23T03:21:10;99923.88;;;12.11;94.46
64644;BME280;51056;50.330;7.914;2023-04-23T03:24:14;99928.56;;;12.06;94.33
64644;BME280;51056;50.330;7.914;2023-04-23T03:27:18;99939.06;;;12.06;93.71
64644;BME280;51056;50.330;7.914;2023-04-23T03:30:20;99943.97;;;11.98;93.73
64644;BME280;51056;50.330;7.914;2023-04-23T03:33:24;99939.03;;;11.93;93.75
64644;BME280;51056;50.330;7.914;2023-04-23T03:36:27;99932.25;;;11.91;93.54
64644;BME280;51056;50.330;7.914;2023-04-23T03:39:30;99925.63;;;11.85;93.38
64644;BME280;51056;50.330;7.914;2023-04-23T03:42:33;99928.63;;;11.79;93.32
64644;BME280;51056;50.330;7.914;2023-04-23T03:45:37;99930.63;;;11.75;92.82
64644;BME280;51056;50.330;7.914;2023-04-23T03:48:40;99929.34;;;11.68;93.21
64644;BME280;51056;50.330;7.914;2023-04-23T03:51:49;99929.75;;;11.62;93.01
64644;BME280;51056;50.330;7.914;2023-04-23T03:54:51;99926.50;;;11.58;93.33
64644;BME280;51056;50.330;7.914;2023-04-23T03:57:59;99929.97;;;11.59;93.04
64644;BME280;51056;50.330;7.914;2023-04-23T04:01:17;99942.22;;;11.58;92.10
64644;BME280;51056;50.330;7.914;2023-04-23T04:04:23;99948.78;;;11.51;92.29
64644;BME280;51056;50.330;7.914;2023-04-23T04:07:26;99943.44;;;11.53;92.43
64644;BME280;51056;50.330;7.914;2023-04-23T04:10:32;99951.09;;;11.56;92.63
64644;BME280;51056;50.330;7.914;2023-04-23T04:13:35;99952.53;;;11.47;92.30
64644;BME280;51056;50.330;7.914;2023-04-23T04:16:37;99960.69;;;11.43;92.76
64644;BME280;51056;50.330;7.914;2023-04-23T04:19:41;99950.94;;;11.45;93.74
64644;BME280;51056;50.330;7.914;2023-04-23T04:22:45;99947.84;;;11.52;93.60
64644;BME280;51056;50.330;7.914;2023-04-23T04:25:48;99955.59;;;11.54;93.17
64644;BME280;51056;50.330;7.914;2023-04-23T04:38:18;99954.50;;;11.44;93.16
64644;BME280;51056;50.330;7.914;2023-04-23T04:41:40;99956.31;;;11.43;93.64
64644;BME280;51056;50.330;7.914;2023-04-23T04:44:44;99947.31;;;11.47;93.51
64644;BME280;51056;50.330;7.914;2023-04-23T04:47:47;99937.84;;;11.45;93.60
64644;BME280;51056;50.330;7.914;2023-04-23T04:50:50;99938.69;;;11.45;93.57
64644;BME280;51056;50.330;7.914;2023-04-23T04:53:53;99935.34;;;11.43;93.69
64644;BME280;51056;50.330;7.914;2023-04-23T04:56:56;99929.28;;;11.43;93.74
64644;BME280;51056;50.330;7.914;2023-04-23T05:00:00;99929.28;;;11.43;93.90
64644;BME280;51056;50.330;7.914;2023-04-23T05:03:05;99928.41;;;11.42;93.48
64644;BME280;51056;50.330;7.914;2023-04-23T05:06:08;99931.16;;;11.40;93.83
64644;BME280;51056;50.330;7.914;2023-04-23T05:09:10;99935.34;;;11.43;94.09
64644;BME280;51056;50.330;7.914;2023-04-23T05:12:13;99942.47;;;11.41;94.36
64644;BME280;51056;50.330;7.914;2023-04-23T05:15:17;99943.28;;;11.41;95.00
64644;BME280;51056;50.330;7.914;2023-04-23T05:18:19;99942.66;;;11.38;95.48
64644;BME280;51056;50.330;7.914;2023-04-23T05:21:23;99946.09;;;11.38;95.87
64644;BME280;51056;50.330;7.914;2023-04-23T05:24:30;99946.09;;;11.38;95.50
64644;BME280;51056;50.330;7.914;2023-04-23T05:28:03;99958.69;;;11.33;95.43
64644;BME280;51056;50.330;7.914;2023-04-23T05:31:08;99964.31;;;11.27;95.86
64644;BME280;51056;50.330;7.914;2023-04-23T05:34:14;99969.53;;;11.27;96.07
64644;BME280;51056;50.330;7.914;2023-04-23T05:37:17;99977.38;;;11.27;96.60
64644;BME280;51056;50.330;7.914;2023-04-23T05:40:21;99974.78;;;11.27;97.47
64644;BME280;51056;50.330;7.914;2023-04-23T05:43:24;99985.75;;;11.32;97.06
64644;BME280;51056;50.330;7.914;2023-04-23T05:46:27;99992.50;;;11.36;97.11
64644;BME280;51056;50.330;7.914;2023-04-23T05:49:29;99981.91;;;11.38;96.76
64644;BME280;51056;50.330;7.914;2023-04-23T05:52:33;99973.03;;;11.40;96.38
64644;BME280;51056;50.330;7.914;2023-04-23T05:55:38;99961.53;;;11.43;96.21
64644;BME280;51056;50.330;7.914;2023-04-23T05:58:42;99956.09;;;11.46;96.31
64644;BME280;51056;50.330;7.914;2023-04-23T06:01:45;99949.84;;;11.49;95.22
64644;BME280;51056;50.330;7.914;2023-04-23T06:04:49;99944.88;;;11.44;94.77
64644;BME280;51056;50.330;7.914;2023-04-23T06:07:52;99946.66;;;11.44;94.74
64644;BME280;51056;50.330;7.914;2023-04-23T06:10:55;99961.97;;;11.50;94.98
64644;BME280;51056;50.330;7.914;2023-04-23T06:13:58;99964.91;;;11.58;95.52
64644;BME280;51056;50.330;7.914;2023-04-23T06:17:02;99957.84;;;11.73;95.60
64644;BME280;51056;50.330;7.914;2023-04-23T06:20:05;99956.59;;;11.78;95.57
64644;BME280;51056;50.330;7.914;2023-04-23T06:23:11;99953.03;;;11.79;96.74
64644;BME280;51056;50.330;7.914;2023-04-23T06:26:14;99953.28;;;11.89;96.90
64644;BME280;51056;50.330;7.914;2023-04-23T06:29:18;99944.72;;;12.00;97.29
64644;BME280;51056;50.330;7.914;2023-04-23T06:32:30;99946.81;;;11.95;97.53
64644;BME280;51056;50.330;7.914;2023-04-23T06:35:33;99934.94;;;11.89;96.90
64644;BME280;51056;50.330;7.914;2023-04-23T06:38:36;99936.66;;;12.03;97.46
64644;BME280;51056;50.330;7.914;2023-04-23T06:41:39;99927.13;;;12.15;97.12
64644;BME280;51056;50.330;7.914;2023-04-23T06:44:49;99934.97;;;12.27;95.58
64644;BME280;51056;50.330;7.914;2023-04-23T06:47:53;99937.28;;;12.45;95.68
64644;BME280;51056;50.330;7.914;2023-04-23T06:50:56;99946.19;;;12.55;94.44
64644;BME280;51056;50.330;7.914;2023-04-23T06:53:58;99949.75;;;12.54;93.02
64644;BME280;51056;50.330;7.914;2023-04-23T06:57:01;99938.94;;;12.46;92.44
64644;BME280;51056;50.330;7.914;2023-04-23T07:00:10;99927.72;;;12.44;88.90
64644;BME280;51056;50.330;7.914;2023-04-23T07:03:15;99913.75;;;12.56;90.46
64644;BME280;51056;50.330;7.914;2023-04-23T07:06:19;99902.41;;;12.68;90.58
64644;BME280;51056;50.330;7.914;2023-04-23T07:09:22;99907.97;;;12.76;91.47
64644;BME280;51056;50.330;7.914;2023-04-23T07:12:25;99906.03;;;12.78;88.42
64644;BME280;51056;50.330;7.914;2023-04-23T07:15:28;99911.47;;;12.88;89.37
64644;BME280;51056;50.330;7.914;2023-04-23T07:18:30;99896.97;;;12.95;89.22
64644;BME280;51056;50.330;7.914;2023-04-23T07:21:33;99899.13;;;12.77;86.61
64644;BME280;51056;50.330;7.914;2023-04-23T07:24:36;99893.28;;;12.74;87.15
64644;BME280;51056;50.330;7.914;2023-04-23T07:27:42;99892.00;;;12.79;85.49
64644;BME280;51056;50.330;7.914;2023-04-23T07:30:45;99907.81;;;12.91;84.57
64644;BME280;51056;50.330;7.914;2023-04-23T07:33:48;99900.28;;;13.10;84.27
64644;BME280;51056;50.330;7.914;2023-04-23T07:36:52;99902.34;;;13.18;82.08
64644;BME280;51056;50.330;7.914;2023-04-23T07:39:56;99903.66;;;13.23;81.11
64644;BME280;51056;50.330;7.914;2023-04-23T07:43:01;99894.84;;;13.37;80.34
64644;BME280;51056;50.330;7.914;2023-04-23T07:46:05;99898.06;;;13.41;78.95
64644;BME280;51056;50.330;7.914;2023-04-23T07:49:09;99898.31;;;13.49;78.52
64644;BME280;51056;50.330;7.914;2023-04-23T07:52:12;99891.44;;;13.59;77.16
64644;BME280;51056;50.330;7.914;2023-04-23T07:55:40;99891.94;;;13.64;76.88
64644;BME280;51056;50.330;7.914;2023-04-23T07:58:43;99889.34;;;13.76;75.80
64644;BME280;51056;50.330;7.914;2023-04-23T08:01:47;99894.81;;;13.72;76.38
64644;BME280;51056;50.330;7.914;2023-04-23T08:04:51;99892.66;;;13.66;75.34
64644;BME280;51056;50.330;7.914;2023-04-23T08:07:53;99895.28;;;13.66;75.75
64644;BME280;51056;50.330;7.914;2023-04-23T08:10:57;99890.97;;;13.65;74.39
64644;BME280;51056;50.330;7.914;2023-04-23T08:14:00;99885.25;;;13.71;75.41
64644;BME280;51056;50.330;7.914;2023-04-23T08:17:05;99882.91;;;13.80;74.95
64644;BME280;51056;50.330;7.914;2023-04-23T08:20:08;99876.25;;;13.98;74.50
64644;BME280;51056;50.330;7.914;2023-04-23T08:23:11;99871.72;;;14.11;74.38
64644;BME280;51056;50.330;7.914;2023-04-23T08:26:15;99858.91;;;14.18;74.68
64644;BME280;51056;50.330;7.914;2023-04-23T08:29:18;99858.78;;;14.19;73.38
64644;BME280;51056;50.330;7.914;2023-04-23T08:32:21;99861.31;;;14.21;73.48
64644;BME280;51056;50.330;7.914;2023-04-23T08:35:24;99868.00;;;14.25;71.58
64644;BME280;51056;50.330;7.914;2023-04-23T08:38:28;99861.66;;;14.28;72.53
64644;BME280;51056;50.330;7.914;2023-04-23T08:41:33;99865.97;;;14.17;70.77
64644;BME280;51056;50.330;7.914;2023-04-23T08:44:37;99866.31;;;14.02;70.45
64644;BME280;51056;50.330;7.914;2023-04-23T08:47:40;99875.28;;;13.99;69.44
64644;BME280;51056;50.330;7.914;2023-04-23T08:50:46;99877.41;;;13.94;69.27
64644;BME280;51056;50.330;7.914;2023-04-23T08:53:50;99871.91;;;13.86;68.36
64644;BME280;51056;50.330;7.914;2023-04-23T08:56:56;99866.78;;;13.95;68.32
64644;BME280;51056;50.330;7.914;2023-04-23T08:59:59;99867.03;;;14.04;67.08
64644;BME280;51056;50.330;7.914;2023-04-23T09:03:05;99860.22;;;14.01;65.88
64644;BME280;51056;50.330;7.914;2023-04-23T09:06:08;99852.94;;;14.16;66.11
64644;BME280;51056;50.330;7.914;2023-04-23T09:09:14;99848.25;;;14.42;66.53
64644;BME280;51056;50.330;7.914;2023-04-23T09:12:17;99844.88;;;14.74;65.15
64644;BME280;51056;50.330;7.914;2023-04-23T09:15:20;99833.34;;;14.97;63.54
64644;BME280;51056;50.330;7.914;2023-04-23T09:18:24;99829.66;;;15.21;63.30
64644;BME280;51056;50.330;7.914;2023-04-23T09:21:26;99822.97;;;15.17;61.77
64644;BME280;51056;50.330;7.914;2023-04-23T09:24:29;99819.97;;;15.42;63.38
64644;BME280;51056;50.330;7.914;2023-04-23T09:27:32;99812.53;;;15.68;63.47
64644;BME280;51056;50.330;7.914;2023-04-23T09:30:41;99810.94;;;15.77;62.42
64644;BME280;51056;50.330;7.914;2023-04-23T09:33:49;99812.13;;;15.73;61.77
64644;BME280;51056;50.330;7.914;2023-04-23T09:36:52;99803.69;;;15.79;63.23
64644;BME280;51056;50.330;7.914;2023-04-23T09:40:02;99793.41;;;15.76;61.77
64644;BME280;51056;50.330;7.914;2023-04-23T09:43:12;99797.78;;;15.66;60.44
64644;BME280;51056;50.330;7.914;2023-04-23T09:46:15;99797.75;;;15.77;61.18
64644;BME280;51056;50.330;7.914;2023-04-23T09:49:18;99791.25;;;15.81;60.70
64644;BME280;51056;50.330;7.914;2023-04-23T09:52:21;99799.59;;;15.86;60.22
64644;BME280;51056;50.330;7.914;2023-04-23T09:55:31;99797.28;;;15.72;58.36
64644;BME280;51056;50.330;7.914;2023-04-23T09:58:37;99799.81;;;15.73;59.01
64644;BME280;51056;50.330;7.914;2023-04-23T10:01:40;99796.00;;;15.87;59.04
64644;BME280;51056;50.330;7.914;2023-04-23T10:04:49;99785.44;;;15.87;58.71
64644;BME280;51056;50.330;7.914;2023-04-23T10:07:52;99784.66;;;15.96;58.50
64644;BME280;51056;50.330;7.914;2023-04-23T10:10:56;99780.69;;;16.12;59.59
64644;BME280;51056;50.330;7.914;2023-04-23T10:13:59;99786.59;;;16.35;58.23
64644;BME280;51056;50.330;7.914;2023-04-23T10:17:03;99775.03;;;16.36;55.45
64644;BME280;51056;50.330;7.914;2023-04-23T10:20:07;99776.84;;;16.35;54.96
64644;BME280;51056;50.330;7.914;2023-04-23T10:23:10;99776.41;;;16.30;54.25
64644;BME280;51056;50.330;7.914;2023-04-23T10:26:14;99776.75;;;16.46;54.20
64644;BME280;51056;50.330;7.914;2023-04-23T10:29:22;99779.41;;;16.46;53.40
64644;BME280;51056;50.330;7.914;2023-04-23T10:32:28;99772.56;;;16.34;52.54
64644;BME280;51056;50.330;7.914;2023-04-23T10:35:32;99767.50;;;16.12;53.64
64644;BME280;51056;50.330;7.914;2023-04-23T10:38:35;99770.56;;;16.26;54.16
64644;BME280;51056;50.330;7.914;2023-04-23T10:41:39;99772.81;;;16.31;54.26
64644;BME280;51056;50.330;7.914;2023-04-23T10:44:42;99774.25;;;16.45;52.81
64644;BME280;51056;50.330;7.914;2023-04-23T10:47:45;99757.16;;;16.59;52.31
64644;BME280;51056;50.330;7.914;2023-04-23T10:50:53;99755.38;;;16.69;50.96
64644;BME280;51056;50.330;7.914;2023-04-23T10:53:59;99752.34;;;16.83;50.79
64644;BME280;51056;50.330;7.914;2023-04-23T10:57:03;99746.25;;;16.92;50.19
64644;BME280;51056;50.330;7.914;2023-04-23T11:00:06;99735.69;;;16.92;49.97
64644;BME280;51056;50.330;7.914;2023-04-23T11:13:23;99738.41;;;16.62;50.89
64644;BME280;51056;50.330;7.914;2023-04-23T11:16:27;99732.03;;;16.74;50.58
64644;BME280;51056;50.330;7.914;2023-04-23T11:19:33;99722.75;;;16.89;51.08
64644;BME280;51056;50.330;7.914;2023-04-23T11:22:37;99713.56;;;16.84;52.36
64644;BME280;51056;50.330;7.914;2023-04-23T11:25:41;99714.13;;;16.78;52.83
64644;BME280;51056;50.330;7.914;2023-04-23T11:28:45;99720.75;;;16.62;53.63
64644;BME280;51056;50.330;7.914;2023-04-23T11:31:49;99712.84;;;16.62;54.26
64644;BME280;51056;50.330;7.914;2023-04-23T11:34:52;99706.34;;;16.57;54.30
64644;BME280;51056;50.330;7.914;2023-04-23T11:37:56;99707.16;;;16.57;54.31
64644;BME280;51056;50.330;7.914;2023-04-23T11:41:02;99699.53;;;16.64;54.70
64644;BME280;51056;50.330;7.914;2023-04-23T11:44:07;99685.63;;;16.52;54.00
64644;BME280;51056;50.330;7.914;2023-04-23T11:47:12;99686.59;;;16.41;53.17
64644;BME280;51056;50.330;7.914;2023-04-23T11:50:19;99680.63;;;16.49;53.22
64644;BME280;51056;50.330;7.914;2023-04-23T11:53:22;99668.84;;;16.53;53.13
64644;BME280;51056;50.330;7.914;2023-04-23T11:56:30;99662.59;;;16.35;52.74
64644;BME280;51056;50.330;7.914;2023-04-23T11:59:34;99657.44;;;16.52;53.32
64644;BME280;51056;50.330;7.914;2023-04-23T12:02:37;99653.94;;;16.62;52.81
64644;BME280;51056;50.330;7.914;2023-04-23T12:05:40;99652.44;;;16.88;52.80
64644;BME280;51056;50.330;7.914;2023-04-23T12:08:45;99649.88;;;17.06;52.31
64644;BME280;51056;50.330;7.914;2023-04-23T12:11:48;99646.06;;;17.28;51.62
64644;BME280;51056;50.330;7.914;2023-04-23T12:15:02;99639.03;;;17.47;50.22
64644;BME280;51056;50.330;7.914;2023-04-23T12:18:08;99638.44;;;17.25;50.45
64644;BME280;51056;50.330;7.914;2023-04-23T12:21:11;99630.28;;;17.09;49.50
64644;BME280;51056;50.330;7.914;2023-04-23T12:24:15;99616.00;;;17.02;49.59
64644;BME280;51056;50.330;7.914;2023-04-23T12:27:18;99622.13;;;16.92;49.88
64644;BME280;51056;50.330;7.914;2023-04-23T12:30:23;99621.53;;;17.08;49.65
64644;BME280;51056;50.330;7.914;2023-04-23T12:33:30;99621.63;;;17.26;49.63
64644;BME280;51056;50.330;7.914;2023-04-23T12:36:34;99615.56;;;17.43;48.19
64644;BME280;51056;50.330;7.914;2023-04-23T12:39:37;99616.66;;;17.41;47.70
64644;BME280;51056;50.330;7.914;2023-04-23T12:42:41;99610.22;;;17.53;47.84
64644;BME280;51056;50.330;7.914;2023-04-23T12:45:48;99606.16;;;17.59;47.70
64644;BME280;51056;50.330;7.914;2023-04-23T12:48:51;99600.69;;;17.42;47.82
64644;BME280;51056;50.330;7.914;2023-04-23T12:51:54;99595.97;;;17.36;47.73
64644;BME280;51056;50.330;7.914;2023-04-23T12:59:15;99592.66;;;18.07;45.98
64644;BME280;51056;50.330;7.914;2023-04-23T13:02:18;99579.94;;;18.29;44.24
64644;BME280;51056;50.330;7.914;2023-04-23T13:05:21;99569.78;;;18.86;43.01
64644;BME280;51056;50.330;7.914;2023-04-23T13:08:24;99571.28;;;19.23;41.82
64644;BME280;51056;50.330;7.914;2023-04-23T13:11:28;99561.13;;;19.10;41.82
64644;BME280;51056;50.330;7.914;2023-04-23T13:14:31;99557.03;;;19.24;41.21
64644;BME280;51056;50.330;7.914;2023-04-23T13:17:35;99557.59;;;19.01;40.65
64644;BME280;51056;50.330;7.914;2023-04-23T13:20:38;99562.16;;;19.17;40.50
64644;BME280;51056;50.330;7.914;2023-04-23T13:23:41;99543.72;;;19.50;39.93
64644;BME280;51056;50.330;7.914;2023-04-23T13:26:45;99554.09;;;19.78;40.29
64644;BME280;51056;50.330;7.914;2023-04-23T13:29:48;99549.47;;;19.96;39.63
64644;BME280;51056;50.330;7.914;2023-04-23T13:32:51;99545.66;;;19.90;38.11
64644;BME280;51056;50.330;7.914;2023-04-23T13:35:54;99531.06;;;20.03;37.80
64644;BME280;51056;50.330;7.914;2023-04-23T13:38:58;99520.59;;;20.42;37.92
64644;BME280;51056;50.330;7.914;2023-04-23T13:42:01;99516.56;;;20.79;36.76
64644;BME280;51056;50.330;7.914;2023-04-23T13:45:06;99517.78;;;21.16;37.23
64644;BME280;51056;50.330;7.914;2023-04-23T13:48:10;99508.00;;;20.44;36.73
64644;BME280;51056;50.330;7.914;2023-04-23T13:51:13;99515.66;;;20.06;36.85
64644;BME280;51056;50.330;7.914;2023-04-23T13:54:17;99520.31;;;20.20;37.73
64644;BME280;51056;50.330;7.914;2023-04-23T13:57:20;99499.06;;;20.12;37.27
64644;BME280;51056;50.330;7.914;2023-04-23T14:00:26;99510.81;;;20.42;37.58
64644;BME280;51056;50.330;7.914;2023-04-23T14:03:29;99501.69;;;19.71;39.00
64644;BME280;51056;50.330;7.914;2023-04-23T14:06:32;99500.94;;;18.94;40.42
64644;BME280;51056;50.330;7.914;2023-04-23T14:09:39;99490.16;;;18.79;41.74
64644;BME280;51056;50.330;7.914;2023-04-23T14:12:43;99477.97;;;19.03;41.38
64644;BME280;51056;50.330;7.914;2023-04-23T14:15:46;99473.94;;;18.83;42.50
64644;BME280;51056;50.330;7.914;2023-04-23T14:18:49;99466.50;;;18.60;42.86
64644;BME280;51056;50.330;7.914;2023-04-23T14:21:53;99461.09;;;18.44;43.28
64644;BME280;51056;50.330;7.914;2023-04-23T14:25:00;99452.13;;;18.10;43.72
64644;BME280;51056;50.330;7.914;2023-04-23T14:28:08;99448.97;;;18.07;44.51
64644;BME280;51056;50.330;7.914;2023-04-23T14:31:19;99435.34;;;17.94;43.90
64644;BME280;51056;50.330;7.914;2023-04-23T14:34:22;99429.53;;;18.16;44.43
64644;BME280;51056;50.330;7.914;2023-04-23T14:37:25;99425.66;;;18.28;44.52
64644;BME280;51056;50.330;7.914;2023-04-23T14:40:29;99414.38;;;18.26;44.71
64644;BME280;51056;50.330;7.914;2023-04-23T14:43:32;99403.81;;;18.00;44.16
64644;BME280;51056;50.330;7.914;2023-04-23T14:46:36;99408.13;;;17.83;45.01
64644;BME280;51056;50.330;7.914;2023-04-23T14:49:39;99402.22;;;17.89;45.27
64644;BME280;51056;50.330;7.914;2023-04-23T14:52:46;99400.75;;;17.87;45.76
64644;BME280;51056;50.330;7.914;2023-04-23T14:55:49;99390.00;;;17.88;45.66
64644;BME280;51056;50.330;7.914;2023-04-23T14:58:53;99392.03;;;17.77;46.02
64644;BME280;51056;50.330;7.914;2023-04-23T15:01:56;99390.38;;;17.76;46.20
64644;BME280;51056;50.330;7.914;2023-04-23T15:04:59;99387.97;;;17.82;47.29
64644;BME280;51056;50.330;7.914;2023-04-23T15:08:02;99383.16;;;17.78;47.46
64644;BME280;51056;50.330;7.914;2023-04-23T15:11:06;99378.97;;;17.75;47.98
64644;BME280;51056;50.330;7.914;2023-04-23T15:17:27;99383.00;;;17.61;48.82
64644;BME280;51056;50.330;7.914;2023-04-23T15:20:30;99381.78;;;17.56;49.52
64644;BME280;51056;50.330;7.914;2023-04-23T15:23:33;99372.44;;;17.43;49.65
64644;BME280;51056;50.330;7.914;2023-04-23T15:26:37;99371.81;;;17.50;49.74
64644;BME280;51056;50.330;7.914;2023-04-23T15:29:41;99360.25;;;17.51;49.79
64644;BME280;51056;50.330;7.914;2023-04-23T15:32:44;99362.84;;;17.42;49.66
64644;BME280;51056;50.330;7.914;2023-04-23T15:35:47;99355.06;;;17.41;50.18
64644;BME280;51056;50.330;7.914;2023-04-23T15:38:52;99354.03;;;17.34;50.12
64644;BME280;51056;50.330;7.914;2023-04-23T15:41:56;99342.03;;;17.39;50.41
64644;BME280;51056;50.330;7.914;2023-04-23T15:44:59;99345.69;;;17.47;50.30
64644;BME280;51056;50.330;7.914;2023-04-23T15:48:02;99346.69;;;17.46;50.30
64644;BME280;51056;50.330;7.914;2023-04-23T15:51:05;99339.22;;;17.41;50.35
64644;BME280;51056;50.330;7.914;2023-04-23T15:54:08;99342.97;;;17.38;50.51
64644;BME280;51056;50.330;7.914;2023-04-23T15:57:12;99344.44;;;17.33;50.42
64644;BME280;51056;50.330;7.914;2023-04-23T16:00:15;99352.75;;;17.20;50.66
64644;BME280;51056;50.330;7.914;2023-04-23T16:03:20;99359.47;;;17.14;51.69
64644;BME280;51056;50.330;7.914;2023-04-23T16:06:23;99367.47;;;17.05;53.01
64644;BME280;51056;50.330;7.914;2023-04-23T16:09:26;99382.00;;;17.09;54.42
64644;BME280;51056;50.330;7.914;2023-04-23T16:12:29;99433.38;;;16.96;58.13
64644;BME280;51056;50.330;7.914;2023-04-23T16:15:33;99492.88;;;16.54;61.14
64644;BME280;51056;50.330;7.914;2023-04-23T16:18:36;99473.41;;;15.69;70.02
64644;BME280;51056;50.330;7.914;2023-04-23T16:21:39;99463.53;;;15.51;69.82
64644;BME280;51056;50.330;7.914;2023-04-23T16:24:42;99451.16;;;15.32;73.25
64644;BME280;51056;50.330;7.914;2023-04-23T16:27:46;99432.84;;;15.31;75.18
64644;BME280;51056;50.330;7.914;2023-04-23T16:30:49;99427.75;;;15.39;75.59
64644;BME280;51056;50.330;7.914;2023-04-23T16:33:52;99418.59;;;15.33;76.51
64644;BME280;51056;50.330;7.914;2023-04-23T16:36:55;99420.25;;;15.34;77.64
64644;BME280;51056;50.330;7.914;2023-04-23T16:39:59;99416.38;;;15.29;79.39
64644;BME280;51056;50.330;7.914;2023-04-23T16:43:02;99410.13;;;15.30;80.20